Estación meteorológica de Montseny - Mas Joan (Vallès Oriental, P.N.del Montseny)

Consulta los datos en tiempo real de la estación meteorológica de Montseny - Mas Joan





Hora UTC 17:55
Temperatura 13.0 ºC
Humedad 60.8 %
Pluja 0.0 mm
Velocidad viento 4.8 km/h
Dirección viento S
Radiación solar 57.3 W/m²

Datos diarios 2026-05-02



Hora UTC (invierno +1h; verano +2h)
Temperatura (ºC) Humedad (%) Velocidad viento (km/h) Precipitación (mm) Radiación solar (W/m²)
Hora UTC Aire Humedad Vel. Dir. Vel. Max Dir. Intent. máx 5 min. Rad. Sol.
00:05 12.4 80.9 1.0 W 1.4 WNW 0.0 0.1
00:10 12.4 80.7 1.5 WNW 2.2 WNW 0.0 0.1
00:15 12.4 80.6 1.3 W 3.2 NW 0.0 0.0
00:20 12.4 80.5 1.3 WNW 2.4 NNW 0.0 0.0
00:25 12.5 81.7 2.7 S 4.8 SSE 0.0 0.0
00:30 12.6 82.3 3.3 S 4.9 S 0.0 0.0
00:35 12.7 82.8 3.2 S 4.4 S 0.0 0.0
00:40 12.6 83.0 3.2 S 4.6 S 0.0 0.0
00:45 12.6 82.9 3.6 SSE 5.0 SSE 0.0 0.0
00:50 12.5 83.1 3.6 SSE 5.0 SSE 0.0 0.0
00:55 12.5 83.6 3.4 S 5.0 SSE 0.0 0.0
01:00 12.5 83.9 3.3 S 5.1 SSE 0.0 0.0
01:05 12.5 84.2 2.9 S 4.3 SSE 0.0 0.0
01:10 12.5 84.7 3.5 S 5.0 SSW 0.0 0.0
01:15 12.4 85.0 1.6 S 3.8 SSE 0.0 0.0
01:20 12.4 84.9 0.7 SW 1.7 S 0.0 0.0
01:25 12.4 84.7 1.1 NW 2.1 NW 0.0 0.0
01:30 12.4 84.4 1.7 WNW 2.3 WNW 0.0 0.0
01:35 12.4 84.5 1.8 WNW 3.0 NW 0.0 0.0
01:40 12.4 84.7 1.4 WNW 2.3 WNW 0.0 0.0
01:45 12.5 85.1 1.6 NW 2.6 NW 0.0 0.0
01:50 12.5 85.3 1.5 WNW 2.4 NW 0.0 0.0
01:55 12.5 85.2 0.8 WSW 1.8 NW 0.0 0.0
02:00 12.5 85.2 0.7 WSW 2.1 S 0.0 0.0
02:05 12.5 85.3 0.4 SSW 0.8 S 0.0 0.0
02:10 12.5 85.3 1.0 SW 1.8 SW 0.0 0.0
02:15 12.5 85.4 1.1 SW 1.6 SSW 0.0 0.0
02:20 12.5 85.6 1.5 S 2.8 S 0.0 0.0
02:25 12.5 85.6 0.6 WSW 1.5 SSE 0.0 0.0
02:30 12.4 85.7 1.2 SE 1.9 ESE 0.0 0.0
02:35 12.3 85.7 1.2 SE 2.1 S 0.0 0.0
02:40 12.3 85.4 1.3 S 2.4 SSE 0.0 0.0
02:45 12.2 84.6 2.2 SSE 3.8 SSE 0.0 0.0
02:50 12.2 84.4 2.4 S 4.5 S 0.0 0.0
02:55 12.2 84.5 2.4 SSE 3.6 S 0.0 0.0
03:00 12.2 84.9 1.6 SE 3.3 S 0.0 0.0
03:05 12.2 85.0 1.6 S 3.0 SSE 0.0 0.0
03:10 12.2 85.7 2.4 S 4.1 S 0.0 0.0
03:15 12.2 86.1 3.7 SSE 8.1 SSE 0.0 0.0
03:20 12.0 87.3 5.4 SSE 10.2 SSE 0.0 0.0
03:25 11.8 89.3 5.3 SSE 8.1 S 0.0 0.0
03:30 11.6 91.1 5.1 SSE 8.4 SSE 0.0 0.0
03:35 11.5 92.0 4.2 SSE 9.3 SSE 0.0 0.0
03:40 11.5 92.6 3.2 SSE 5.8 SSE 0.0 0.0
03:45 11.4 92.7 3.3 SSE 6.2 ESE 0.0 0.0
03:50 11.4 92.7 3.3 S 7.3 SSE 0.0 0.0
03:55 11.3 92.7 4.5 S 7.8 S 0.0 0.0
04:00 11.3 92.6 2.5 SSE 5.5 S 0.0 0.0
04:05 11.4 92.5 3.2 S 4.7 S 0.0 0.0
04:10 11.4 92.2 3.8 SSE 7.7 S 0.0 0.0
04:15 11.2 89.5 4.0 S 7.2 SSE 0.0 0.0
04:20 11.3 85.1 2.8 S 5.6 S 0.0 0.0
04:25 11.4 81.1 3.2 SSE 5.6 SSE 0.0 0.0
04:30 11.4 79.4 3.5 S 5.5 S 0.0 0.0
04:35 11.4 79.1 3.6 SSE 6.2 SSE 0.0 0.1
04:40 11.4 77.9 3.5 S 6.7 S 0.0 0.3
04:45 11.4 77.3 3.7 S 6.5 S 0.0 1.0
04:50 11.4 76.9 3.0 S 5.3 S 0.0 0.9
04:55 11.5 75.6 1.8 SSW 3.7 SSE 0.0 1.5
05:00 11.5 76.0 1.3 SSW 3.5 SSW 0.0 1.6
05:05 11.5 75.3 1.3 S 3.0 SSE 0.0 4.1
05:10 11.5 75.5 0.7 NNE 1.8 NE 0.0 4.2
05:15 11.5 76.0 1.3 NW 1.9 WNW 0.0 4.3
05:20 11.4 76.8 1.9 WNW 2.8 WNW 0.0 4.5
05:25 11.4 77.4 0.8 W 1.5 WNW 0.0 7.7
05:30 11.4 76.3 0.7 N 2.0 N 0.0 11.1
05:35 11.4 77.0 1.5 NW 2.6 WNW 0.0 16.6
05:40 11.4 77.2 2.3 NW 3.1 WNW 0.0 26.4
05:45 11.4 76.9 2.1 NW 3.0 WNW 0.0 31.6
05:50 11.5 75.2 1.0 NW 2.4 NW 0.0 27.2
05:55 11.7 76.7 0.9 NNW 1.7 N 0.0 27.0
06:00 11.7 77.4 0.6 NW 1.5 WNW 0.0 33.2
06:05 11.7 75.7 1.3 SE 2.7 S 0.0 54.6
06:10 11.9 75.5 1.3 SSE 2.1 SE 0.0 71.2
06:15 11.9 72.8 0.5 W 1.4 SSE 0.0 56.0
06:20 12.1 73.0 1.0 SE 2.8 SSE 0.0 49.5
06:25 12.1 71.6 1.0 ENE 2.0 ENE 0.0 67.1
06:30 12.3 74.1 1.4 NNE 2.3 NNW 0.0 69.9
06:35 12.2 74.2 0.9 ENE 1.7 NNE 0.0 62.5
06:40 12.2 71.7 1.4 ESE 3.2 S 0.0 61.6
06:45 12.3 66.6 1.1 ESE 2.5 S 0.0 69.7
06:50 12.4 61.3 1.8 SSE 3.0 SSE 0.0 87.6
06:55 12.6 63.6 1.4 S 2.3 S 0.0 88.2
07:00 12.6 62.1 1.0 ENE 2.2 S 0.0 77.3
07:05 12.7 58.7 1.9 N 3.9 N 0.0 85.5
07:10 12.8 58.6 1.7 E 3.3 SE 0.0 101.9
07:15 12.9 58.6 1.8 SE 4.3 SSE 0.0 89.7
07:20 12.9 62.0 2.0 NNE 5.0 N 0.0 129.3
07:25 12.9 68.8 3.7 N 6.3 NNW 0.0 148.2
07:30 12.9 66.6 2.6 N 4.6 N 0.0 0.0
07:35 12.9 64.8 1.9 NNE 4.3 NNW 0.0 114.0
07:40 12.9 63.7 1.7 NNE 3.4 NNE 0.0 107.3
07:45 12.9 63.8 1.4 NNE 2.6 N 0.0 74.5
07:50 12.9 65.0 1.4 ENE 2.8 N 0.0 61.4
07:55 12.9 64.7 2.4 N 4.6 N 0.0 87.5
08:00 12.8 64.1 3.0 N 4.8 NNW 0.0 88.8
08:05 12.7 64.6 3.1 NNW 4.5 N 0.0 57.3
08:10 12.7 65.7 1.9 N 4.1 N 0.0 61.9
08:15 12.8 65.9 1.7 N 2.8 NNW 0.0 82.8
08:20 12.8 62.7 1.8 NNW 3.3 NNW 0.0 82.9
08:25 12.8 61.9 2.1 N 3.3 N 0.0 59.1
08:30 12.8 62.3 3.3 NNW 4.8 NNW 0.0 57.4
08:35 12.7 62.9 1.5 WNW 3.5 NNW 0.0 56.8
08:40 12.8 62.7 1.2 S 2.7 S 0.0 71.5
08:45 13.0 61.7 0.7 WSW 1.4 SSW 0.0 86.8
08:50 13.1 61.0 1.2 SSE 2.7 SSE 0.0 99.0
08:55 13.2 59.8 2.1 SSE 3.8 S 0.0 103.7
09:00 13.3 58.2 1.9 SSE 3.4 S 0.0 94.8
09:05 13.3 56.6 2.3 SSE 4.3 SSE 0.0 75.6
09:10 13.3 58.7 1.9 S 3.5 SSW 0.0 80.9
09:15 13.4 56.6 1.3 E 3.3 S 0.0 102.7
09:20 13.5 59.0 1.5 ESE 3.1 SSE 0.0 91.7
09:25 13.5 60.6 1.9 S 3.9 S 0.0 83.5
09:30 13.6 62.4 2.0 SSE 4.0 SSE 0.0 97.7
09:35 13.6 62.6 2.6 SSE 4.6 S 0.0 138.9
09:40 13.6 60.4 1.7 SSE 3.7 ESE 0.0 164.4
09:45 13.7 59.3 1.8 NE 2.8 NNE 0.0 170.8
09:50 13.8 60.3 1.7 ESE 3.6 ENE 0.0 167.3
09:55 13.9 59.0 2.3 SSE 4.1 S 0.0 169.6
10:00 13.9 59.1 2.2 ENE 5.1 NNE 0.0 195.6
10:05 14.1 59.2 1.8 E 4.2 ESE 0.0 189.5
10:10 14.1 58.6 2.6 SSE 4.5 S 0.0 216.0
10:15 14.2 58.8 2.3 SSE 4.5 SSE 0.0 254.9
10:20 14.3 58.2 2.4 SSE 4.0 SE 0.0 402.4
10:25 14.6 57.5 3.7 SSE 7.0 S 0.0 453.1
10:30 14.9 56.1 2.6 SSE 7.0 ESE 0.0 455.5
10:35 14.8 54.4 3.0 ENE 6.3 SSE 0.0 337.5
10:40 14.7 53.8 3.4 SE 6.8 ESE 0.0 252.1
10:45 14.7 54.5 2.9 SSE 5.1 ESE 0.0 232.0
10:50 14.7 55.7 2.6 ESE 5.1 NE 0.0 206.0
10:55 14.7 54.0 2.1 E 4.9 SE 0.0 161.8
11:00 14.7 56.3 2.2 SE 5.7 SSW 0.0 213.9
11:05 15.0 56.2 2.4 ESE 8.1 ESE 0.0 345.8
11:10 15.4 56.0 3.2 E 8.1 E 0.0 424.5
11:15 15.5 54.8 3.8 SE 7.2 SE 0.0 480.4
11:20 15.7 55.4 3.0 ENE 6.8 NNE 0.0 453.9
11:25 15.8 56.6 3.5 SE 9.5 ESE 0.0 479.4
11:30 15.7 58.8 4.7 SE 10.9 ENE 0.0 486.8
11:35 15.7 58.2 3.6 E 9.1 NE 0.0 535.9
11:40 16.1 58.5 4.1 SSE 10.4 S 0.0 536.9
11:45 16.2 58.3 4.6 SE 9.9 SSW 0.0 525.7
11:50 16.5 59.2 3.7 ESE 7.6 ENE 0.0 511.2
11:55 16.4 57.8 4.5 SE 10.2 SSE 0.0 377.5
12:00 15.7 59.6 3.0 SE 7.1 SSE 0.0 409.8
12:05 16.1 58.9 3.6 ESE 10.8 SE 0.0 506.7
12:10 16.2 58.5 4.5 E 9.9 ESE 0.0 555.7
12:15 16.5 58.5 4.3 E 9.3 E 0.0 570.1
12:20 16.3 56.3 3.6 SE 10.6 SSE 0.0 548.9
12:25 16.3 56.7 4.9 SE 12.0 S 0.0 468.2
12:30 16.5 56.5 4.1 ESE 9.7 ESE 0.0 612.2
12:35 17.1 55.5 4.8 SE 10.0 ESE 0.0 684.2
12:40 16.9 55.0 4.1 SSE 7.4 ESE 0.0 575.8
12:45 17.3 53.9 5.2 S 10.2 SSE 0.0 697.7
12:50 17.1 53.6 4.5 SE 12.2 NE 0.0 547.1
12:55 16.7 54.0 4.7 ESE 11.6 ENE 0.0 484.2
13:00 16.8 53.7 5.1 S 10.2 SE 0.0 488.2
13:05 17.0 53.1 4.9 SSE 12.8 SE 0.0 459.9
13:10 16.8 54.2 4.1 SSE 7.5 S 0.0 430.3
13:15 17.0 53.9 4.8 SSE 12.5 E 0.0 426.4
13:20 16.8 55.1 4.5 SE 8.7 ESE 0.0 476.8
13:25 16.7 55.6 5.2 SE 14.9 ESE 0.0 431.6
13:30 16.7 56.5 4.7 SSE 9.4 SSE 0.0 587.5
13:35 16.5 57.3 6.3 SSE 13.7 SE 0.0 527.2
13:40 16.5 58.2 4.7 SE 10.8 ENE 0.0 482.1
13:45 16.4 59.9 4.3 SE 11.0 E 0.0 490.2
13:50 16.4 61.3 4.7 SE 9.1 E 0.0 435.7
13:55 16.4 62.7 5.5 ESE 12.2 NE 0.0 495.3
14:00 16.2 63.7 5.5 SE 10.9 ESE 0.0 312.4
14:05 15.5 65.8 4.9 SE 11.5 ESE 0.0 260.0
14:10 15.5 66.5 4.9 SSE 12.4 S 0.0 299.4
14:15 15.6 65.7 4.5 SSE 10.2 S 0.0 302.6
14:20 15.4 66.1 4.3 SE 13.0 SSE 0.0 275.5
14:25 15.4 66.1 4.2 SE 9.0 SE 0.0 330.1
14:30 15.5 63.8 4.7 SSE 11.1 SE 0.0 372.7
14:35 15.6 62.1 4.4 SE 11.3 ESE 0.0 373.1
14:40 15.7 60.9 3.8 ESE 10.4 ESE 0.0 405.1
14:45 15.8 61.7 3.8 E 10.8 ENE 0.0 475.9
14:50 16.1 59.9 4.8 SE 11.8 ESE 0.0 642.0
14:55 16.2 57.8 4.4 ESE 8.6 NNE 0.0 622.2
15:00 16.1 55.1 5.5 ENE 13.1 ENE 0.0 530.9
15:05 15.8 55.4 4.0 E 10.5 E 0.0 415.7
15:10 15.9 53.2 3.3 SE 9.5 E 0.0 402.9
15:15 15.9 52.3 4.2 SSE 8.8 NE 0.0 293.4
15:20 15.6 51.8 4.2 SSE 9.1 SSE 0.0 399.6
15:25 15.8 53.1 4.5 SE 11.4 E 0.0 479.7
15:30 15.9 49.8 4.0 SE 9.1 SE 0.0 472.2
15:35 15.7 45.1 5.3 SSE 8.5 SSE 0.0 255.6
15:40 15.4 43.7 3.6 SSE 6.0 SSE 0.0 314.2
15:45 15.5 45.8 3.9 SSE 7.8 SSE 0.0 368.9
15:50 15.5 50.0 3.7 SE 7.1 ENE 0.0 368.3
15:55 15.5 50.7 3.5 SSE 9.2 S 0.0 413.2
16:00 15.4 53.2 3.2 SE 8.1 S 0.0 284.5
16:05 15.3 58.0 3.4 SE 8.1 E 0.0 264.0
16:10 15.1 57.4 4.2 SE 8.1 SSE 0.0 292.6
16:15 15.1 59.5 3.7 SSE 7.0 SSE 0.0 285.5
16:20 14.9 59.9 4.4 ESE 9.9 SSE 0.0 277.6
16:25 15.0 60.1 3.9 ESE 8.9 E 0.0 260.1
16:30 14.8 60.1 3.0 SE 6.7 SSW 0.0 209.8
16:35 14.7 60.9 3.0 SSE 6.5 E 0.0 178.2
16:40 14.5 61.4 3.4 SSE 8.2 E 0.0 193.1
16:45 14.3 62.7 3.4 ESE 9.2 ESE 0.0 216.0
16:50 14.2 64.1 3.1 SE 7.8 SE 0.0 202.6
16:55 14.3 64.4 3.1 SSE 8.3 ESE 0.0 181.9
17:00 14.1 64.6 2.3 SE 4.5 ESE 0.0 168.0
17:05 13.9 65.1 3.2 SE 8.3 E 0.0 155.0
17:10 13.8 66.4 2.2 S 5.9 S 0.0 138.3
17:15 13.7 67.0 2.2 SSE 5.4 SSE 0.0 122.7
17:20 13.6 67.3 3.2 SSE 7.4 ESE 0.0 115.4
17:25 13.5 67.5 2.4 SSE 4.6 SSE 0.0 111.4
17:30 13.4 65.5 3.4 SSE 5.8 S 0.0 107.2
17:35 13.3 63.3 4.5 SSE 6.4 ESE 0.0 102.0
17:40 13.2 59.9 6.1 S 9.0 SSE 0.0 81.8
17:45 13.1 59.6 6.3 S 11.6 S 0.0 70.7
17:50 13.1 60.3 5.5 S 8.1 SSE 0.0 66.2
17:55 13.0 60.8 4.8 S 7.6 SSE 0.0 57.3
Máxima 17.3 92.7 6.3 S 14.9 ESE 0.0 697.7
Mínima 11.2 43.7
Total 0.0